createdAt,value
2022-12-20T00:01:35.848Z,98807.06
2022-12-20T00:04:06.528Z,98807.06
2022-12-20T00:06:36.063Z,98814.13
2022-12-20T00:09:06.938Z,98820.19
2022-12-20T00:11:35.631Z,98818.56
2022-12-20T00:14:03.783Z,98820.38
2022-12-20T00:16:33.285Z,98811.09
2022-12-20T00:19:03.653Z,98814.53
2022-12-20T00:21:33.681Z,98820.56
2022-12-20T00:24:01.954Z,98816.56
2022-12-20T00:26:32.055Z,98811.31
2022-12-20T00:29:00.822Z,98816.94
2022-12-20T00:31:30.667Z,98814.13
2022-12-20T00:34:02.079Z,98809.88
2022-12-20T00:36:32.729Z,98798.94
2022-12-20T00:39:01.627Z,98808.28
2022-12-20T00:41:35.075Z,98800.78
2022-12-20T00:44:03.691Z,98801.41
2022-12-20T00:46:34.463Z,98812.72
2022-12-20T00:49:04.154Z,98808.84
2022-12-20T00:51:33.171Z,98813.28
2022-12-20T00:54:01.441Z,98806.03
2022-12-20T00:56:29.599Z,98812.88
2022-12-20T00:59:00.536Z,98797.91
2022-12-20T01:01:31.775Z,98789.03
2022-12-20T01:04:00.178Z,98792.88
2022-12-20T01:06:31.211Z,98801.75
2022-12-20T01:08:59.531Z,98806.22
2022-12-20T01:11:30.879Z,98807.63
2022-12-20T01:14:01.746Z,98799.53
2022-12-20T01:16:32.267Z,98819.97
2022-12-20T01:19:00.736Z,98801.13
2022-12-20T01:21:30.918Z,98811.88
2022-12-20T01:23:59.176Z,98805.59
2022-12-20T01:26:29.369Z,98812.84
2022-12-20T01:29:00.294Z,98806.59
2022-12-20T01:31:30.156Z,98812.03
2022-12-20T01:33:59.026Z,98812.66
2022-12-20T01:36:31.436Z,98803.97
2022-12-20T01:39:01.109Z,98812.03
2022-12-20T01:41:30.942Z,98802.34
2022-12-20T01:44:01.345Z,98808.41
2022-12-20T01:46:31.748Z,98809.63
2022-12-20T01:49:05.019Z,98804.75
2022-12-20T01:51:38.138Z,98807.19
2022-12-20T01:54:11.210Z,98819.53
2022-12-20T01:56:42.129Z,98819.53
2022-12-20T01:59:10.781Z,98813.84
2022-12-20T02:01:39.228Z,98808.00
2022-12-20T02:04:07.496Z,98813.66
2022-12-20T02:06:37.414Z,98812.28
2022-12-20T02:09:06.996Z,98804.78
2022-12-20T02:12:08.863Z,98796.31
2022-12-20T02:14:44.525Z,98803.16
2022-12-20T02:17:22.435Z,98799.34
2022-12-20T02:20:19.834Z,98799.75
2022-12-20T02:23:09.230Z,98793.50
2022-12-20T02:25:48.053Z,98793.72
2022-12-20T02:28:36.496Z,98794.91
2022-12-20T02:31:12.160Z,98795.31
2022-12-20T02:33:43.375Z,98798.75
2022-12-20T02:36:11.545Z,98794.91
2022-12-20T02:38:40.019Z,98795.34
2022-12-20T02:41:13.415Z,98796.31
2022-12-20T02:44:11.062Z,98804.81
2022-12-20T02:46:41.754Z,98801.56
2022-12-20T02:49:13.351Z,98817.34
2022-12-20T02:51:46.100Z,98819.38
2022-12-20T02:54:15.308Z,98814.53
2022-12-20T02:56:48.474Z,98820.41
2022-12-20T02:59:20.788Z,98812.91
2022-12-20T03:01:53.462Z,98811.31
2022-12-20T03:04:26.337Z,98816.56
2022-12-20T03:07:02.149Z,98816.56
2022-12-20T03:09:32.488Z,98811.31
2022-12-20T03:12:01.086Z,98800.19
2022-12-20T03:14:29.592Z,98807.47
2022-12-20T03:16:59.235Z,98804.63
2022-12-20T03:19:27.390Z,98808.88
2022-12-20T03:21:56.197Z,98810.09
2022-12-20T03:24:24.303Z,98811.50
2022-12-20T03:26:52.605Z,98809.09
2022-12-20T03:29:20.801Z,98801.22
2022-12-20T03:31:48.891Z,98806.25
2022-12-20T03:34:18.414Z,98802.22
2022-12-20T03:36:46.537Z,98801.41
2022-12-20T03:39:14.717Z,98815.53
2022-12-20T03:41:43.157Z,98818.38
2022-12-20T03:44:11.757Z,98816.94
2022-12-20T03:46:39.921Z,98827.44
2022-12-20T03:49:08.486Z,98829.47
2022-12-20T03:51:38.081Z,98826.66
2022-12-20T03:54:06.146Z,98824.63
2022-12-20T03:56:34.465Z,98831.50
2022-12-20T03:59:02.617Z,98843.00
2022-12-20T04:01:31.660Z,98849.91
2022-12-20T04:04:00.041Z,98837.34
2022-12-20T04:06:28.261Z,98839.19
2022-12-20T04:08:57.843Z,98838.38
2022-12-20T04:11:26.001Z,98844.66
2022-12-20T04:13:55.370Z,98843.63
2022-12-20T04:16:25.095Z,98847.06
2022-12-20T04:18:53.773Z,98850.50
2022-12-20T04:21:24.707Z,98849.06
2022-12-20T04:23:53.153Z,98847.06
2022-12-20T04:26:23.061Z,98857.34
2022-12-20T04:28:51.492Z,98859.16
2022-12-20T04:31:23.840Z,98855.16
2022-12-20T04:33:53.244Z,98862.19
2022-12-20T04:36:21.801Z,98858.56
2022-12-20T04:38:49.949Z,98869.25
2022-12-20T04:41:23.399Z,98862.19
2022-12-20T04:43:54.789Z,98868.66
2022-12-20T04:46:24.276Z,98866.03
2022-12-20T04:48:57.717Z,98872.69
2022-12-20T04:51:26.494Z,98875.72
2022-12-20T04:53:53.593Z,98873.28
2022-12-20T04:56:23.783Z,98879.75
2022-12-20T04:58:55.602Z,98875.13
2022-12-20T05:01:24.149Z,98891.06
2022-12-20T05:03:52.779Z,98885.81
2022-12-20T05:06:21.078Z,98895.91
2022-12-20T05:08:49.520Z,98894.28
2022-12-20T05:11:18.335Z,98898.09
2022-12-20T05:13:46.449Z,98900.72
2022-12-20T05:16:16.632Z,98904.97
2022-12-20T05:18:49.262Z,98907.00
2022-12-20T05:21:35.560Z,98902.16
2022-12-20T05:24:21.091Z,98908.44
2022-12-20T05:26:49.317Z,98911.47
2022-12-20T05:29:17.880Z,98916.34
2022-12-20T05:31:47.725Z,98918.75
2022-12-20T05:34:16.088Z,98915.13
2022-12-20T05:36:44.345Z,98914.53
2022-12-20T05:39:12.972Z,98916.94
2022-12-20T05:41:41.697Z,98927.66
2022-12-20T05:44:10.000Z,98915.91
2022-12-20T05:46:38.233Z,98927.63
2022-12-20T05:49:07.948Z,98920.34
2022-12-20T05:51:36.706Z,98934.47
2022-12-20T05:54:05.801Z,98932.88
2022-12-20T05:56:34.369Z,98937.69
2022-12-20T05:59:03.332Z,98942.75
2022-12-20T06:01:32.067Z,98947.38
2022-12-20T06:04:00.457Z,98951.03
2022-12-20T06:06:29.973Z,98954.66
2022-12-20T06:08:58.132Z,98953.22
2022-12-20T06:11:30.220Z,98950.59
2022-12-20T06:13:59.544Z,98963.94
2022-12-20T06:16:27.815Z,98962.31
2022-12-20T06:18:56.484Z,98959.28
2022-12-20T06:21:24.607Z,98961.09
2022-12-20T06:23:54.444Z,98955.84
2022-12-20T06:26:23.415Z,98955.84
2022-12-20T06:28:54.881Z,98952.97
2022-12-20T06:31:22.854Z,98959.63
2022-12-20T06:33:51.011Z,98965.66
2022-12-20T06:36:19.161Z,98979.00
2022-12-20T06:38:47.405Z,98981.00
2022-12-20T06:41:17.023Z,98977.56
2022-12-20T06:43:45.175Z,98979.38
2022-12-20T06:46:15.013Z,98980.59
2022-12-20T06:48:43.249Z,98982.41
2022-12-20T06:51:11.743Z,98974.72
2022-12-20T06:53:39.987Z,98983.59
2022-12-20T06:56:08.718Z,98985.22
2022-12-20T06:58:38.323Z,98986.03
2022-12-20T07:01:06.914Z,99002.59
2022-12-20T07:03:35.284Z,99001.38
2022-12-20T07:06:03.557Z,99005.81
2022-12-20T07:08:32.687Z,98997.53
2022-12-20T07:11:05.811Z,99002.34
2022-12-20T07:13:34.192Z,99012.03
2022-12-20T07:16:05.348Z,99020.28
2022-12-20T07:18:35.727Z,99018.84
2022-12-20T07:21:05.895Z,99032.78
2022-12-20T07:23:34.403Z,99022.28
2022-12-20T07:26:04.253Z,99032.78
2022-12-20T07:28:32.524Z,99033.00
2022-12-20T07:31:04.871Z,99036.41
2022-12-20T07:33:33.620Z,99034.59
2022-12-20T07:36:02.925Z,99040.66
2022-12-20T07:38:31.179Z,99038.03
2022-12-20T07:40:59.434Z,99041.22
2022-12-20T07:43:27.729Z,99037.16
2022-12-20T07:45:57.512Z,99049.31
2022-12-20T07:48:27.314Z,99059.78
2022-12-20T07:51:00.394Z,99057.53
2022-12-20T07:53:31.785Z,99059.16
2022-12-20T07:56:01.706Z,99063.00
2022-12-20T07:58:31.597Z,99072.47
2022-12-20T08:00:59.940Z,99084.78
2022-12-20T08:03:34.439Z,99078.28
2022-12-20T08:06:06.044Z,99079.69
2022-12-20T08:08:35.102Z,99085.16
2022-12-20T08:11:04.698Z,99092.41
2022-12-20T08:13:34.114Z,99092.78
2022-12-20T08:16:02.279Z,99097.84
2022-12-20T08:18:31.936Z,99109.94
2022-12-20T08:21:00.722Z,99112.97
2022-12-20T08:23:28.899Z,99118.00
2022-12-20T08:25:57.079Z,99118.56
2022-12-20T08:28:25.342Z,99124.63
2022-12-20T08:30:53.628Z,99140.34
2022-12-20T08:33:21.720Z,99147.63
2022-12-20T08:35:58.645Z,99140.75
2022-12-20T08:38:28.422Z,99153.66
2022-12-20T08:40:56.666Z,99148.06
2022-12-20T08:43:24.805Z,99137.94
2022-12-20T08:45:56.489Z,99146.63
2022-12-20T08:48:24.700Z,99156.50
2022-12-20T08:50:58.006Z,99146.00
2022-12-20T08:53:26.502Z,99161.53
2022-12-20T08:55:54.940Z,99162.34
2022-12-20T08:58:23.077Z,99171.22
2022-12-20T09:00:51.399Z,99184.53
2022-12-20T09:03:19.671Z,99175.22
2022-12-20T09:05:48.561Z,99175.81
2022-12-20T09:08:18.049Z,99190.38
2022-12-20T09:10:46.183Z,99204.66
2022-12-20T09:13:14.300Z,99217.97
2022-12-20T09:15:42.483Z,99213.38
2022-12-20T09:18:10.705Z,99227.09
2022-12-20T09:20:44.304Z,99219.03
2022-12-20T09:23:12.643Z,99227.28
2022-12-20T09:25:42.095Z,99230.53
2022-12-20T09:28:10.306Z,99232.78
2022-12-20T09:30:38.504Z,99234.41
2022-12-20T09:33:07.317Z,99243.09
2022-12-20T09:35:44.678Z,99248.34
2022-12-20T09:38:12.906Z,99254.19
2022-12-20T09:40:50.562Z,99259.28
2022-12-20T09:43:21.046Z,99262.25
2022-12-20T09:45:53.286Z,99255.38
2022-12-20T09:48:24.635Z,99274.19
2022-12-20T09:51:05.846Z,99273.94
2022-12-20T09:53:44.402Z,99281.50
2022-12-20T09:56:19.036Z,99291.81
2022-12-20T09:59:01.003Z,99308.81
2022-12-20T10:01:38.040Z,99303.34
2022-12-20T10:04:12.723Z,99318.75
2022-12-20T10:06:51.674Z,99321.81
2022-12-20T10:09:38.165Z,99331.91
2022-12-20T10:12:16.918Z,99326.91
2022-12-20T10:14:59.969Z,99337.03
2022-12-20T10:17:41.095Z,99329.38
2022-12-20T10:20:23.650Z,99357.69
2022-12-20T10:22:55.834Z,99349.59
2022-12-20T10:25:26.647Z,99365.97
2022-12-20T10:27:58.225Z,99363.34
2022-12-20T10:30:29.064Z,99369.59
2022-12-20T10:32:59.587Z,99369.88
2022-12-20T10:35:29.861Z,99389.16
2022-12-20T10:38:08.727Z,99382.69
2022-12-20T10:41:18.675Z,99373.09
2022-12-20T10:43:30.347Z,99385.41
2022-12-20T10:46:02.043Z,99404.22
2022-12-20T10:48:32.932Z,99410.69
2022-12-20T10:51:03.525Z,99416.19
2022-12-20T10:53:32.563Z,99415.03
2022-12-20T10:56:19.232Z,99416.66
2022-12-20T10:58:57.033Z,99418.72
2022-12-20T11:01:29.225Z,99435.91
2022-12-20T11:04:03.090Z,99423.03
2022-12-20T11:06:44.272Z,99435.72
2022-12-20T11:09:26.907Z,99433.78
2022-12-20T11:12:07.948Z,99427.53
2022-12-20T11:14:40.075Z,99455.25
2022-12-20T11:17:29.055Z,99459.13
2022-12-20T11:20:22.643Z,99464.44
2022-12-20T11:23:04.396Z,99469.69
2022-12-20T11:25:45.099Z,99476.81
2022-12-20T11:28:25.122Z,99474.63
2022-12-20T11:31:04.823Z,99481.69
2022-12-20T11:33:53.967Z,99480.88
2022-12-20T11:36:33.790Z,99496.34
2022-12-20T11:39:08.719Z,99512.53
2022-12-20T11:41:44.695Z,99501.28
2022-12-20T11:44:26.267Z,99504.72
2022-12-20T11:47:20.453Z,99512.59
2022-12-20T11:50:13.460Z,99515.66
2022-12-20T11:52:47.805Z,99525.38
2022-12-20T11:55:21.870Z,99525.97
2022-12-20T12:00:54.087Z,99518.34
2022-12-20T12:03:30.478Z,99515.47
2022-12-20T12:06:03.238Z,99510.00
2022-12-20T12:08:38.255Z,99516.22
2022-12-20T12:11:39.740Z,99531.88
2022-12-20T12:14:05.145Z,99527.00
2022-12-20T12:16:36.861Z,99517.91
2022-12-20T12:19:11.710Z,99520.47
2022-12-20T12:21:45.647Z,99516.84
2022-12-20T12:24:23.126Z,99530.78
2022-12-20T12:26:51.421Z,99528.56
2022-12-20T12:29:21.677Z,99511.78
2022-12-20T12:31:55.286Z,99520.47
2022-12-20T12:34:41.826Z,99508.97
2022-12-20T12:37:35.597Z,99519.34
2022-12-20T12:40:52.273Z,99528.69
2022-12-20T12:43:55.549Z,99535.56
2022-12-20T12:46:29.157Z,99540.56
2022-12-20T12:49:02.579Z,99539.41
2022-12-20T12:51:35.350Z,99530.69
2022-12-20T12:54:15.468Z,99528.25
2022-12-20T12:56:47.264Z,99535.50
2022-12-20T12:59:43.937Z,99533.50
2022-12-20T13:02:36.586Z,99543.16
2022-12-20T13:05:34.369Z,99551.84
2022-12-20T13:08:04.923Z,99557.97
2022-12-20T13:11:04.575Z,99548.66
2022-12-20T13:13:32.671Z,99555.34
2022-12-20T13:16:12.215Z,99553.72
2022-12-20T13:18:57.786Z,99576.59
2022-12-20T13:21:40.087Z,99548.69
2022-12-20T13:24:42.750Z,99568.72
2022-12-20T13:27:22.990Z,99574.19
2022-12-20T13:30:00.781Z,99568.72
2022-12-20T13:33:19.223Z,99589.75
2022-12-20T13:36:31.844Z,99600.00
2022-12-20T13:39:03.670Z,99592.56
2022-12-20T13:41:37.100Z,99599.44
2022-12-20T13:44:43.562Z,99597.22
2022-12-20T13:47:35.479Z,99606.06
2022-12-20T13:50:19.968Z,99600.09
2022-12-20T13:52:48.300Z,99604.53
2022-12-20T13:55:27.215Z,99608.69
2022-12-20T13:57:56.225Z,99610.09
2022-12-20T14:00:26.979Z,99608.28
2022-12-20T14:02:55.949Z,99604.00
2022-12-20T14:05:26.889Z,99609.44
2022-12-20T14:08:00.896Z,99603.59
2022-12-20T14:10:32.383Z,99605.50
2022-12-20T14:13:00.733Z,99619.56
2022-12-20T14:15:30.873Z,99621.00
2022-12-20T14:18:05.736Z,99634.69
2022-12-20T14:20:36.066Z,99639.31
2022-12-20T14:23:07.076Z,99627.91
2022-12-20T14:25:44.618Z,99623.81
2022-12-20T14:28:26.747Z,99635.34
2022-12-20T14:30:56.740Z,99639.97
2022-12-20T14:33:31.791Z,99641.13
2022-12-20T14:36:09.768Z,99650.38
2022-12-20T14:38:38.288Z,99642.69
2022-12-20T14:41:33.828Z,99652.47
2022-12-20T14:44:14.924Z,99655.53
2022-12-20T14:46:49.634Z,99667.22
2022-12-20T14:49:22.507Z,99671.19
2022-12-20T14:51:51.692Z,99668.41
2022-12-20T14:54:56.792Z,99682.88
2022-12-20T14:57:24.753Z,99686.31
2022-12-20T15:00:07.321Z,99684.50
2022-12-20T15:02:40.838Z,99706.69
2022-12-20T15:05:11.335Z,99703.06
2022-12-20T15:07:42.548Z,99701.16
2022-12-20T15:10:10.785Z,99703.44
2022-12-20T15:12:47.419Z,99701.34
2022-12-20T15:15:29.461Z,99709.41
2022-12-20T15:17:57.804Z,99715.00
2022-12-20T15:20:25.889Z,99721.88
2022-12-20T15:22:54.055Z,99716.00
2022-12-20T15:25:22.111Z,99730.63
2022-12-20T15:27:52.003Z,99733.78
2022-12-20T15:30:20.438Z,99734.59
2022-12-20T15:32:55.750Z,99725.63
2022-12-20T15:35:25.021Z,99727.25
2022-12-20T15:37:53.237Z,99728.41
2022-12-20T15:40:21.346Z,99732.84
2022-12-20T15:42:49.594Z,99727.97
2022-12-20T15:45:19.195Z,99731.56
2022-12-20T15:47:47.306Z,99734.09
2022-12-20T15:50:15.607Z,99746.56
2022-12-20T15:52:44.414Z,99734.94
2022-12-20T15:55:13.113Z,99730.53
2022-12-20T15:57:41.578Z,99747.09
2022-12-20T16:00:13.523Z,99750.88
2022-12-20T16:02:43.243Z,99747.25
2022-12-20T16:05:13.814Z,99757.94
2022-12-20T16:07:43.377Z,99769.94
2022-12-20T16:10:17.320Z,99764.22
2022-12-20T16:12:46.299Z,99773.09
2022-12-20T16:15:21.815Z,99781.63
2022-12-20T16:17:51.466Z,99771.31
2022-12-20T16:20:19.690Z,99775.94
2022-12-20T16:22:47.886Z,99769.22
2022-12-20T16:25:27.092Z,99774.47
2022-12-20T16:27:55.243Z,99772.53
2022-12-20T16:30:23.739Z,99769.75
2022-12-20T16:32:53.573Z,99771.88
2022-12-20T16:35:27.593Z,99783.03
2022-12-20T16:37:57.212Z,99801.38
2022-12-20T16:40:28.147Z,99796.47
2022-12-20T16:42:57.958Z,99801.72
2022-12-20T16:45:29.323Z,99803.53
2022-12-20T16:47:59.190Z,99826.13
2022-12-20T16:50:28.925Z,99817.81
2022-12-20T16:52:57.105Z,99817.97
2022-12-20T16:55:27.371Z,99818.66
2022-12-20T16:57:55.869Z,99824.09
2022-12-20T17:00:27.501Z,99826.03
2022-12-20T17:02:56.961Z,99831.63
2022-12-20T17:05:29.609Z,99833.59
2022-12-20T17:07:58.051Z,99838.03
2022-12-20T17:10:28.411Z,99844.41
2022-12-20T17:12:56.622Z,99840.97
2022-12-20T17:15:26.671Z,99834.44
2022-12-20T17:17:55.383Z,99839.22
2022-12-20T17:20:26.275Z,99843.16
2022-12-20T17:22:56.335Z,99840.19
2022-12-20T17:25:29.890Z,99853.94
2022-12-20T17:27:58.117Z,99851.00
2022-12-20T17:30:27.191Z,99855.25
2022-12-20T17:32:55.276Z,99866.56
2022-12-20T17:35:31.627Z,99861.50
2022-12-20T17:38:00.751Z,99862.44
2022-12-20T17:40:30.514Z,99861.81
2022-12-20T17:42:59.078Z,99856.75
2022-12-20T17:45:30.639Z,99857.72
2022-12-20T17:47:59.336Z,99862.31
2022-12-20T17:50:29.197Z,99865.44
2022-12-20T17:52:57.329Z,99867.06
2022-12-20T17:55:27.557Z,99872.50
2022-12-20T17:57:57.173Z,99876.25
2022-12-20T18:00:34.547Z,99876.25
2022-12-20T18:03:05.079Z,99879.53
2022-12-20T18:05:34.647Z,99883.78
2022-12-20T18:08:02.781Z,99882.97
2022-12-20T18:10:31.045Z,99884.78
2022-12-20T18:12:59.340Z,99879.19
2022-12-20T18:15:27.499Z,99879.84
2022-12-20T18:17:55.848Z,99882.47
2022-12-20T18:20:23.941Z,99890.34
2022-12-20T18:22:53.361Z,99878.38
2022-12-20T18:25:21.695Z,99887.03
2022-12-20T18:27:50.281Z,99885.25
2022-12-20T18:30:18.538Z,99882.47
2022-12-20T18:32:46.667Z,99883.91
2022-12-20T18:35:14.833Z,99879.50
2022-12-20T18:37:43.172Z,99883.09
2022-12-20T18:40:13.100Z,99889.34
2022-12-20T18:42:41.357Z,99888.69
2022-12-20T18:45:11.368Z,99887.03
2022-12-20T18:47:39.616Z,99877.56
2022-12-20T18:50:09.141Z,99878.38
2022-12-20T18:52:38.835Z,99866.75
2022-12-20T18:55:08.691Z,99867.38
2022-12-20T18:57:38.250Z,99872.47
2022-12-20T19:00:08.967Z,99868.06
2022-12-20T19:02:37.293Z,99874.75
2022-12-20T19:05:06.117Z,99872.78
2022-12-20T19:07:34.416Z,99875.41
2022-12-20T19:10:02.569Z,99867.38
2022-12-20T19:12:30.780Z,99857.69
2022-12-20T19:15:00.324Z,99866.56
2022-12-20T19:17:28.469Z,99867.38
2022-12-20T19:19:56.630Z,99869.00
2022-12-20T19:22:25.388Z,99871.28
2022-12-20T19:24:55.680Z,99867.50
2022-12-20T19:27:23.840Z,99862.25
2022-12-20T19:29:52.034Z,99879.78
2022-12-20T19:32:21.578Z,99880.59
2022-12-20T19:34:49.686Z,99884.03
2022-12-20T19:37:18.437Z,99877.16
2022-12-20T19:39:46.542Z,99892.09
2022-12-20T19:42:30.175Z,99887.03
2022-12-20T19:44:58.716Z,99889.81
2022-12-20T19:47:29.284Z,99887.19
2022-12-20T19:49:57.404Z,99875.06
2022-12-20T19:52:28.665Z,99883.91
2022-12-20T19:54:57.490Z,99881.47
2022-12-20T19:57:26.229Z,99890.31
2022-12-20T19:59:56.238Z,99887.69
2022-12-20T20:02:24.941Z,99883.28
2022-12-20T20:04:54.568Z,99887.69
2022-12-20T20:07:22.809Z,99887.84
2022-12-20T20:09:50.990Z,99884.41
2022-12-20T20:12:19.199Z,99879.50
2022-12-20T20:14:47.339Z,99875.72
2022-12-20T20:17:15.621Z,99874.91
2022-12-20T20:19:44.183Z,99876.72
2022-12-20T20:22:19.197Z,99869.69
2022-12-20T20:24:50.995Z,99874.09
2022-12-20T20:27:19.106Z,99875.91
2022-12-20T20:29:50.378Z,99879.50
2022-12-20T20:32:18.591Z,99880.50
2022-12-20T20:34:46.736Z,99884.91
2022-12-20T20:37:16.428Z,99884.09
2022-12-20T20:39:44.528Z,99886.72
2022-12-20T20:42:19.837Z,99885.25
2022-12-20T20:44:51.083Z,99885.72
2022-12-20T20:47:19.166Z,99886.72
2022-12-20T20:49:47.327Z,99884.09
2022-12-20T20:52:16.915Z,99882.47
2022-12-20T20:54:45.146Z,99877.38
2022-12-20T20:57:13.394Z,99873.47
2022-12-20T20:59:42.573Z,99865.78
2022-12-20T21:02:13.731Z,99870.56
2022-12-20T21:04:42.029Z,99878.91
2022-12-20T21:07:10.164Z,99877.91
2022-12-20T21:09:40.275Z,99863.00
2022-12-20T21:12:08.912Z,99880.53
2022-12-20T21:15:20.203Z,99870.38
2022-12-20T21:17:25.192Z,99864.13
2022-12-20T21:19:53.422Z,99870.84
2022-12-20T21:22:21.501Z,99872.00
2022-12-20T21:24:51.053Z,99870.03
2022-12-20T21:27:19.996Z,99869.88
2022-12-20T21:29:48.070Z,99862.81
2022-12-20T21:32:16.213Z,99854.78
2022-12-20T21:34:44.439Z,99859.22
2022-12-20T21:37:12.664Z,99863.47
2022-12-20T21:39:40.886Z,99854.63
2022-12-20T21:42:10.801Z,99862.31
2022-12-20T21:44:38.937Z,99860.50
2022-12-20T21:47:07.107Z,99865.56
2022-12-20T21:49:35.321Z,99856.56
2022-12-20T21:52:03.567Z,99860.66
2022-12-20T21:54:31.673Z,99857.88
2022-12-20T21:57:00.049Z,99857.88
2022-12-20T21:59:29.592Z,99846.72
2022-12-20T22:01:58.628Z,99846.09
2022-12-20T22:04:27.081Z,99842.81
2022-12-20T22:06:55.370Z,99831.69
2022-12-20T22:09:23.489Z,99834.94
2022-12-20T22:11:51.536Z,99831.69
2022-12-20T22:14:19.970Z,99839.53
2022-12-20T22:16:49.590Z,99828.44
2022-12-20T22:19:18.082Z,99818.91
2022-12-20T22:21:46.234Z,99808.44
2022-12-20T22:24:14.453Z,99803.19
2022-12-20T22:26:42.560Z,99799.75
2022-12-20T22:29:11.077Z,99799.59
2022-12-20T22:31:39.387Z,99800.41
2022-12-20T22:34:09.336Z,99805.81
2022-12-20T22:36:37.499Z,99799.75
2022-12-20T22:39:06.047Z,99797.94
2022-12-20T22:41:35.333Z,99796.97
2022-12-20T22:44:04.119Z,99792.69
2022-12-20T22:49:19.778Z,99791.75
2022-12-20T22:51:59.312Z,99797.94
2022-12-20T22:54:34.908Z,99795.31
2022-12-20T22:57:02.984Z,99788.13
2022-12-20T22:59:32.678Z,99784.69
2022-12-20T23:02:00.977Z,99782.88
2022-12-20T23:04:30.760Z,99784.19
2022-12-20T23:06:58.913Z,99786.13
2022-12-20T23:09:27.889Z,99782.88
2022-12-20T23:12:13.861Z,99790.09
2022-12-20T23:15:04.166Z,99785.50
2022-12-20T23:17:33.812Z,99785.31
2022-12-20T23:20:20.859Z,99774.84
2022-12-20T23:22:48.988Z,99769.13
2022-12-20T23:25:20.068Z,99773.03
2022-12-20T23:27:50.168Z,99756.31
2022-12-20T23:30:20.788Z,99737.00
2022-12-20T23:32:49.220Z,99755.19
2022-12-20T23:35:21.445Z,99759.28
2022-12-20T23:37:49.929Z,99753.84
2022-12-20T23:40:18.944Z,99753.34
2022-12-20T23:42:47.342Z,99748.09
2022-12-20T23:45:15.940Z,99744.81
2022-12-20T23:47:44.086Z,99745.16
2022-12-20T23:50:12.693Z,99723.09
2022-12-20T23:52:42.317Z,99711.31
2022-12-20T23:55:11.269Z,99702.78
2022-12-20T23:57:39.555Z,99693.19
